sensor_id;sensor_type;location;lat;lon;timestamp;pressure;altitude;pressure_sealevel;temperature;humidity
45621;BME280;31345;51.522;10.702;2022-10-31T00:02:12;99523.84;;;8.98;100.00
45621;BME280;31345;51.522;10.702;2022-10-31T00:04:40;99526.59;;;8.95;100.00
45621;BME280;31345;51.522;10.702;2022-10-31T00:07:08;99527.31;;;8.81;100.00
45621;BME280;31345;51.522;10.702;2022-10-31T00:09:35;99527.72;;;8.73;100.00
45621;BME280;31345;51.522;10.702;2022-10-31T00:12:03;99527.88;;;8.70;100.00
45621;BME280;31345;51.522;10.702;2022-10-31T00:14:32;99529.31;;;8.76;100.00
45621;BME280;31345;51.522;10.702;2022-10-31T00:17:00;99523.66;;;8.67;100.00
45621;BME280;31345;51.522;10.702;2022-10-31T00:19:27;99537.84;;;8.79;100.00
45621;BME280;31345;51.522;10.702;2022-10-31T00:21:55;99538.75;;;8.78;100.00
45621;BME280;31345;51.522;10.702;2022-10-31T00:24:23;99541.75;;;8.70;100.00
45621;BME280;31345;51.522;10.702;2022-10-31T00:26:50;99543.06;;;8.79;100.00
45621;BME280;31345;51.522;10.702;2022-10-31T00:29:21;99538.03;;;8.92;100.00
45621;BME280;31345;51.522;10.702;2022-10-31T00:31:51;99540.44;;;8.79;100.00
45621;BME280;31345;51.522;10.702;2022-10-31T00:34:19;99534.41;;;8.95;100.00
45621;BME280;31345;51.522;10.702;2022-10-31T00:36:47;99541.91;;;8.85;100.00
45621;BME280;31345;51.522;10.702;2022-10-31T00:39:15;99536.91;;;8.80;100.00
45621;BME280;31345;51.522;10.702;2022-10-31T00:41:42;99547.78;;;8.89;100.00
45621;BME280;31345;51.522;10.702;2022-10-31T00:44:12;99546.97;;;8.70;100.00
45621;BME280;31345;51.522;10.702;2022-10-31T00:46:40;99544.06;;;8.41;100.00
45621;BME280;31345;51.522;10.702;2022-10-31T00:49:09;99553.81;;;8.55;100.00
45621;BME280;31345;51.522;10.702;2022-10-31T00:51:36;99545.41;;;8.84;100.00
45621;BME280;31345;51.522;10.702;2022-10-31T00:54:04;99550.78;;;8.81;100.00
45621;BME280;31345;51.522;10.702;2022-10-31T00:56:32;99552.25;;;8.69;100.00
45621;BME280;31345;51.522;10.702;2022-10-31T00:59:00;99561.06;;;8.84;100.00
45621;BME280;31345;51.522;10.702;2022-10-31T01:01:27;99561.84;;;8.86;100.00
45621;BME280;31345;51.522;10.702;2022-10-31T01:03:55;99558.53;;;8.82;100.00
45621;BME280;31345;51.522;10.702;2022-10-31T01:06:24;99564.16;;;8.57;100.00
45621;BME280;31345;51.522;10.702;2022-10-31T01:08:52;99559.56;;;8.62;100.00
45621;BME280;31345;51.522;10.702;2022-10-31T01:11:21;99569.53;;;8.54;100.00
45621;BME280;31345;51.522;10.702;2022-10-31T01:13:50;99573.34;;;8.46;100.00
45621;BME280;31345;51.522;10.702;2022-10-31T01:16:21;99576.63;;;8.50;100.00
45621;BME280;31345;51.522;10.702;2022-10-31T01:18:50;99574.47;;;8.58;100.00
45621;BME280;31345;51.522;10.702;2022-10-31T01:21:21;99576.19;;;8.59;100.00
45621;BME280;31345;51.522;10.702;2022-10-31T01:23:53;99575.81;;;8.50;100.00
45621;BME280;31345;51.522;10.702;2022-10-31T01:26:23;99577.56;;;8.49;100.00
45621;BME280;31345;51.522;10.702;2022-10-31T01:28:53;99574.03;;;8.50;100.00
45621;BME280;31345;51.522;10.702;2022-10-31T01:31:23;99576.63;;;8.50;100.00
45621;BME280;31345;51.522;10.702;2022-10-31T01:33:51;99578.47;;;8.48;100.00
45621;BME280;31345;51.522;10.702;2022-10-31T01:36:21;99575.09;;;8.46;100.00
45621;BME280;31345;51.522;10.702;2022-10-31T01:38:52;99572.16;;;8.34;100.00
45621;BME280;31345;51.522;10.702;2022-10-31T01:41:22;99571.41;;;8.50;100.00
45621;BME280;31345;51.522;10.702;2022-10-31T01:43:53;99571.72;;;8.44;100.00
45621;BME280;31345;51.522;10.702;2022-10-31T01:46:24;99571.19;;;8.55;100.00
45621;BME280;31345;51.522;10.702;2022-10-31T01:48:52;99564.69;;;8.64;100.00
45621;BME280;31345;51.522;10.702;2022-10-31T01:51:26;99572.88;;;8.73;100.00
45621;BME280;31345;51.522;10.702;2022-10-31T01:54:00;99565.97;;;8.55;100.00
45621;BME280;31345;51.522;10.702;2022-10-31T01:56:29;99571.59;;;8.65;100.00
45621;BME280;31345;51.522;10.702;2022-10-31T01:58:59;99572.59;;;8.62;100.00
45621;BME280;31345;51.522;10.702;2022-10-31T02:01:28;99568.44;;;8.58;100.00
45621;BME280;31345;51.522;10.702;2022-10-31T02:03:56;99573.59;;;8.59;100.00
45621;BME280;31345;51.522;10.702;2022-10-31T02:06:31;99567.91;;;8.51;100.00
45621;BME280;31345;51.522;10.702;2022-10-31T02:09:03;99563.22;;;8.58;100.00
45621;BME280;31345;51.522;10.702;2022-10-31T02:11:32;99565.97;;;8.72;100.00
45621;BME280;31345;51.522;10.702;2022-10-31T02:14:02;99566.03;;;8.89;100.00
45621;BME280;31345;51.522;10.702;2022-10-31T02:16:30;99570.41;;;8.53;100.00
45621;BME280;31345;51.522;10.702;2022-10-31T02:18:58;99571.81;;;8.42;100.00
45621;BME280;31345;51.522;10.702;2022-10-31T02:21:30;99573.03;;;8.35;100.00
45621;BME280;31345;51.522;10.702;2022-10-31T02:27:25;99578.16;;;8.54;100.00
45621;BME280;31345;51.522;10.702;2022-10-31T02:30:07;99577.69;;;8.46;100.00
45621;BME280;31345;51.522;10.702;2022-10-31T02:32:43;99576.22;;;8.40;100.00
45621;BME280;31345;51.522;10.702;2022-10-31T02:35:20;99578.16;;;8.37;100.00
45621;BME280;31345;51.522;10.702;2022-10-31T02:37:57;99585.38;;;8.49;100.00
45621;BME280;31345;51.522;10.702;2022-10-31T02:40:31;99581.91;;;8.49;100.00
45621;BME280;31345;51.522;10.702;2022-10-31T02:43:44;99575.41;;;8.40;100.00
45621;BME280;31345;51.522;10.702;2022-10-31T02:46:25;99576.16;;;8.24;100.00
45621;BME280;31345;51.522;10.702;2022-10-31T02:49:01;99572.41;;;8.30;100.00
45621;BME280;31345;51.522;10.702;2022-10-31T02:51:32;99566.66;;;8.23;100.00
45621;BME280;31345;51.522;10.702;2022-10-31T02:54:00;99575.16;;;8.27;100.00
45621;BME280;31345;51.522;10.702;2022-10-31T02:56:28;99578.84;;;8.23;100.00
45621;BME280;31345;51.522;10.702;2022-10-31T02:58:59;99571.69;;;8.26;100.00
45621;BME280;31345;51.522;10.702;2022-10-31T03:01:53;99573.03;;;8.35;100.00
45621;BME280;31345;51.522;10.702;2022-10-31T03:04:56;99579.28;;;8.13;100.00
45621;BME280;31345;51.522;10.702;2022-10-31T03:07:32;99584.63;;;8.10;100.00
45621;BME280;31345;51.522;10.702;2022-10-31T03:10:14;99597.69;;;8.28;100.00
45621;BME280;31345;51.522;10.702;2022-10-31T03:12:49;99597.59;;;8.29;100.00
45621;BME280;31345;51.522;10.702;2022-10-31T03:15:23;99598.31;;;8.33;100.00
45621;BME280;31345;51.522;10.702;2022-10-31T03:17:57;99606.69;;;8.40;100.00
45621;BME280;31345;51.522;10.702;2022-10-31T03:20:46;99609.88;;;8.27;100.00
45621;BME280;31345;51.522;10.702;2022-10-31T03:23:17;99607.56;;;8.21;100.00
45621;BME280;31345;51.522;10.702;2022-10-31T03:25:50;99613.44;;;8.25;100.00
45621;BME280;31345;51.522;10.702;2022-10-31T03:28:23;99607.97;;;8.49;100.00
45621;BME280;31345;51.522;10.702;2022-10-31T03:30:53;99601.00;;;8.49;100.00
45621;BME280;31345;51.522;10.702;2022-10-31T03:33:26;99608.22;;;8.44;100.00
45621;BME280;31345;51.522;10.702;2022-10-31T03:36:01;99604.19;;;8.19;100.00
45621;BME280;31345;51.522;10.702;2022-10-31T03:38:31;99614.69;;;8.17;100.00
45621;BME280;31345;51.522;10.702;2022-10-31T03:41:03;99613.84;;;7.98;100.00
45621;BME280;31345;51.522;10.702;2022-10-31T03:43:38;99622.31;;;7.84;100.00
45621;BME280;31345;51.522;10.702;2022-10-31T03:46:08;99615.06;;;7.90;100.00
45621;BME280;31345;51.522;10.702;2022-10-31T03:48:36;99619.88;;;7.98;100.00
45621;BME280;31345;51.522;10.702;2022-10-31T03:51:08;99610.69;;;7.91;100.00
45621;BME280;31345;51.522;10.702;2022-10-31T03:53:40;99609.28;;;7.84;100.00
45621;BME280;31345;51.522;10.702;2022-10-31T03:56:17;99615.56;;;7.79;100.00
45621;BME280;31345;51.522;10.702;2022-10-31T03:58:50;99625.97;;;7.79;100.00
45621;BME280;31345;51.522;10.702;2022-10-31T04:01:21;99623.13;;;7.84;100.00
45621;BME280;31345;51.522;10.702;2022-10-31T04:03:52;99623.63;;;7.73;100.00
45621;BME280;31345;51.522;10.702;2022-10-31T04:06:23;99624.28;;;7.98;100.00
45621;BME280;31345;51.522;10.702;2022-10-31T04:08:55;99621.19;;;7.89;100.00
45621;BME280;31345;51.522;10.702;2022-10-31T04:11:27;99629.94;;;7.87;100.00
45621;BME280;31345;51.522;10.702;2022-10-31T04:14:17;99612.44;;;8.10;100.00
45621;BME280;31345;51.522;10.702;2022-10-31T04:16:45;99617.00;;;8.04;100.00
45621;BME280;31345;51.522;10.702;2022-10-31T04:19:14;99612.44;;;7.90;100.00
45621;BME280;31345;51.522;10.702;2022-10-31T04:21:43;99615.13;;;7.89;100.00
45621;BME280;31345;51.522;10.702;2022-10-31T04:24:11;99612.59;;;7.87;100.00
45621;BME280;31345;51.522;10.702;2022-10-31T04:26:40;99614.28;;;7.69;100.00
45621;BME280;31345;51.522;10.702;2022-10-31T04:29:08;99603.38;;;7.61;100.00
45621;BME280;31345;51.522;10.702;2022-10-31T04:31:35;99607.03;;;7.76;100.00
45621;BME280;31345;51.522;10.702;2022-10-31T04:34:03;99601.63;;;7.80;100.00
45621;BME280;31345;51.522;10.702;2022-10-31T04:36:31;99611.41;;;7.94;100.00
45621;BME280;31345;51.522;10.702;2022-10-31T04:39:00;99607.78;;;7.97;100.00
45621;BME280;31345;51.522;10.702;2022-10-31T04:41:38;99618.78;;;7.85;100.00
45621;BME280;31345;51.522;10.702;2022-10-31T04:44:13;99616.72;;;7.91;100.00
45621;BME280;31345;51.522;10.702;2022-10-31T04:46:42;99606.19;;;7.94;100.00
45621;BME280;31345;51.522;10.702;2022-10-31T04:49:10;99607.25;;;7.71;100.00
45621;BME280;31345;51.522;10.702;2022-10-31T04:51:38;99612.03;;;7.61;100.00
45621;BME280;31345;51.522;10.702;2022-10-31T04:54:09;99615.59;;;7.59;100.00
45621;BME280;31345;51.522;10.702;2022-10-31T04:56:59;99620.19;;;7.73;100.00
45621;BME280;31345;51.522;10.702;2022-10-31T04:59:28;99621.16;;;7.70;100.00
45621;BME280;31345;51.522;10.702;2022-10-31T05:01:56;99620.91;;;7.57;100.00
45621;BME280;31345;51.522;10.702;2022-10-31T05:04:37;99616.84;;;7.50;100.00
45621;BME280;31345;51.522;10.702;2022-10-31T05:07:04;99624.31;;;7.57;100.00
45621;BME280;31345;51.522;10.702;2022-10-31T05:09:33;99622.09;;;7.69;100.00
45621;BME280;31345;51.522;10.702;2022-10-31T05:12:01;99616.78;;;7.51;100.00
45621;BME280;31345;51.522;10.702;2022-10-31T05:14:55;99617.94;;;7.65;100.00
45621;BME280;31345;51.522;10.702;2022-10-31T05:17:41;99620.81;;;7.59;100.00
45621;BME280;31345;51.522;10.702;2022-10-31T05:20:35;99624.97;;;7.63;100.00
45621;BME280;31345;51.522;10.702;2022-10-31T05:23:21;99623.19;;;7.63;100.00
45621;BME280;31345;51.522;10.702;2022-10-31T05:25:51;99626.59;;;7.65;100.00
45621;BME280;31345;51.522;10.702;2022-10-31T05:28:19;99625.03;;;7.61;100.00
45621;BME280;31345;51.522;10.702;2022-10-31T05:30:47;99627.31;;;7.48;100.00
45621;BME280;31345;51.522;10.702;2022-10-31T05:33:16;99626.66;;;7.64;100.00
45621;BME280;31345;51.522;10.702;2022-10-31T05:36:22;99629.31;;;7.62;100.00
45621;BME280;31345;51.522;10.702;2022-10-31T05:39:13;99629.06;;;7.48;100.00
45621;BME280;31345;51.522;10.702;2022-10-31T05:41:44;99621.66;;;7.38;100.00
45621;BME280;31345;51.522;10.702;2022-10-31T05:44:27;99620.69;;;7.41;100.00
45621;BME280;31345;51.522;10.702;2022-10-31T05:47:21;99621.06;;;7.52;100.00
45621;BME280;31345;51.522;10.702;2022-10-31T05:49:55;99622.88;;;7.50;100.00
45621;BME280;31345;51.522;10.702;2022-10-31T05:52:43;99620.66;;;7.62;100.00
45621;BME280;31345;51.522;10.702;2022-10-31T05:55:21;99622.09;;;7.69;100.00
45621;BME280;31345;51.522;10.702;2022-10-31T05:58:13;99624.84;;;7.45;100.00
45621;BME280;31345;51.522;10.702;2022-10-31T06:00:49;99629.13;;;7.46;100.00
45621;BME280;31345;51.522;10.702;2022-10-31T06:03:16;99634.06;;;7.52;100.00
45621;BME280;31345;51.522;10.702;2022-10-31T06:05:50;99631.88;;;7.64;100.00
45621;BME280;31345;51.522;10.702;2022-10-31T06:08:18;99635.59;;;7.77;100.00
45621;BME280;31345;51.522;10.702;2022-10-31T06:10:45;99631.06;;;7.62;100.00
45621;BME280;31345;51.522;10.702;2022-10-31T06:13:18;99630.44;;;7.56;100.00
45621;BME280;31345;51.522;10.702;2022-10-31T06:16:01;99637.22;;;7.40;100.00
45621;BME280;31345;51.522;10.702;2022-10-31T06:18:35;99631.63;;;7.28;100.00
45621;BME280;31345;51.522;10.702;2022-10-31T06:21:03;99638.25;;;7.36;100.00
45621;BME280;31345;51.522;10.702;2022-10-31T06:23:31;99635.19;;;7.47;100.00
45621;BME280;31345;51.522;10.702;2022-10-31T06:26:19;99641.00;;;7.52;100.00
45621;BME280;31345;51.522;10.702;2022-10-31T06:28:49;99633.31;;;7.29;100.00
45621;BME280;31345;51.522;10.702;2022-10-31T06:31:30;99645.59;;;7.47;100.00
45621;BME280;31345;51.522;10.702;2022-10-31T06:33:58;99646.34;;;7.49;100.00
45621;BME280;31345;51.522;10.702;2022-10-31T06:36:25;99651.72;;;7.46;100.00
45621;BME280;31345;51.522;10.702;2022-10-31T06:38:54;99658.72;;;7.43;100.00
45621;BME280;31345;51.522;10.702;2022-10-31T06:41:23;99666.47;;;7.45;100.00
45621;BME280;31345;51.522;10.702;2022-10-31T06:43:54;99662.47;;;7.17;100.00
45621;BME280;31345;51.522;10.702;2022-10-31T06:46:51;99668.31;;;7.43;100.00
45621;BME280;31345;51.522;10.702;2022-10-31T06:49:37;99669.78;;;7.69;100.00
45621;BME280;31345;51.522;10.702;2022-10-31T06:52:11;99671.53;;;7.69;100.00
45621;BME280;31345;51.522;10.702;2022-10-31T06:54:38;99672.88;;;7.78;100.00
45621;BME280;31345;51.522;10.702;2022-10-31T06:57:06;99678.28;;;7.73;100.00
45621;BME280;31345;51.522;10.702;2022-10-31T06:59:35;99677.44;;;7.73;100.00
45621;BME280;31345;51.522;10.702;2022-10-31T07:02:09;99679.78;;;7.98;100.00
45621;BME280;31345;51.522;10.702;2022-10-31T07:04:38;99687.13;;;8.09;100.00
45621;BME280;31345;51.522;10.702;2022-10-31T07:07:07;99686.59;;;8.01;100.00
45621;BME280;31345;51.522;10.702;2022-10-31T07:09:37;99691.13;;;7.97;100.00
45621;BME280;31345;51.522;10.702;2022-10-31T07:12:06;99701.81;;;8.10;100.00
45621;BME280;31345;51.522;10.702;2022-10-31T07:14:39;99702.19;;;8.21;100.00
45621;BME280;31345;51.522;10.702;2022-10-31T07:17:07;99700.13;;;8.28;100.00
45621;BME280;31345;51.522;10.702;2022-10-31T07:19:39;99699.06;;;8.32;100.00
45621;BME280;31345;51.522;10.702;2022-10-31T07:22:07;99704.50;;;8.47;100.00
45621;BME280;31345;51.522;10.702;2022-10-31T07:24:35;99702.97;;;8.60;100.00
45621;BME280;31345;51.522;10.702;2022-10-31T07:27:15;99700.47;;;8.77;100.00
45621;BME280;31345;51.522;10.702;2022-10-31T07:29:46;99699.25;;;8.84;100.00
45621;BME280;31345;51.522;10.702;2022-10-31T07:32:16;99699.78;;;8.91;100.00
45621;BME280;31345;51.522;10.702;2022-10-31T07:34:53;99699.03;;;9.06;100.00
45621;BME280;31345;51.522;10.702;2022-10-31T07:37:27;99702.94;;;9.15;100.00
45621;BME280;31345;51.522;10.702;2022-10-31T07:39:56;99702.09;;;9.15;100.00
45621;BME280;31345;51.522;10.702;2022-10-31T07:42:25;99700.66;;;9.27;100.00
45621;BME280;31345;51.522;10.702;2022-10-31T07:44:54;99704.09;;;9.45;100.00
45621;BME280;31345;51.522;10.702;2022-10-31T07:47:49;99708.88;;;9.70;100.00
45621;BME280;31345;51.522;10.702;2022-10-31T07:50:36;99706.19;;;9.72;100.00
45621;BME280;31345;51.522;10.702;2022-10-31T07:53:22;99712.13;;;9.92;100.00
45621;BME280;31345;51.522;10.702;2022-10-31T07:55:54;99712.88;;;10.11;100.00
45621;BME280;31345;51.522;10.702;2022-10-31T07:58:25;99704.28;;;10.25;100.00
45621;BME280;31345;51.522;10.702;2022-10-31T08:00:55;99704.50;;;10.37;100.00
45621;BME280;31345;51.522;10.702;2022-10-31T08:03:32;99696.50;;;10.56;100.00
45621;BME280;31345;51.522;10.702;2022-10-31T08:06:35;99699.94;;;10.73;100.00
45621;BME280;31345;51.522;10.702;2022-10-31T08:09:24;99694.78;;;10.87;100.00
45621;BME280;31345;51.522;10.702;2022-10-31T08:11:53;99694.97;;;10.99;100.00
45621;BME280;31345;51.522;10.702;2022-10-31T08:14:22;99696.69;;;11.14;100.00
45621;BME280;31345;51.522;10.702;2022-10-31T08:16:53;99697.69;;;11.28;100.00
45621;BME280;31345;51.522;10.702;2022-10-31T08:19:29;99700.09;;;11.31;100.00
45621;BME280;31345;51.522;10.702;2022-10-31T08:21:57;99701.88;;;11.45;100.00
45621;BME280;31345;51.522;10.702;2022-10-31T08:24:27;99697.63;;;11.59;100.00
45621;BME280;31345;51.522;10.702;2022-10-31T08:26:58;99690.03;;;11.68;100.00
45621;BME280;31345;51.522;10.702;2022-10-31T08:29:26;99696.13;;;11.83;100.00
45621;BME280;31345;51.522;10.702;2022-10-31T08:31:57;99693.97;;;12.05;100.00
45621;BME280;31345;51.522;10.702;2022-10-31T08:34:44;99685.94;;;12.08;100.00
45621;BME280;31345;51.522;10.702;2022-10-31T08:37:37;99684.13;;;12.23;100.00
45621;BME280;31345;51.522;10.702;2022-10-31T08:40:06;99678.13;;;12.21;100.00
45621;BME280;31345;51.522;10.702;2022-10-31T08:42:38;99677.16;;;12.37;100.00
45621;BME280;31345;51.522;10.702;2022-10-31T08:45:07;99676.09;;;12.39;100.00
45621;BME280;31345;51.522;10.702;2022-10-31T08:47:37;99671.06;;;12.36;100.00
45621;BME280;31345;51.522;10.702;2022-10-31T08:50:06;99673.25;;;12.29;100.00
45621;BME280;31345;51.522;10.702;2022-10-31T08:52:34;99665.63;;;12.39;100.00
45621;BME280;31345;51.522;10.702;2022-10-31T08:55:04;99666.63;;;12.51;100.00
45621;BME280;31345;51.522;10.702;2022-10-31T08:58:02;99676.06;;;12.54;100.00
45621;BME280;31345;51.522;10.702;2022-10-31T09:00:38;99670.19;;;12.50;100.00
45621;BME280;31345;51.522;10.702;2022-10-31T09:03:16;99676.56;;;12.46;100.00
45621;BME280;31345;51.522;10.702;2022-10-31T09:05:44;99670.63;;;12.57;100.00
45621;BME280;31345;51.522;10.702;2022-10-31T09:08:13;99670.00;;;12.66;100.00
45621;BME280;31345;51.522;10.702;2022-10-31T09:10:42;99677.84;;;12.81;100.00
45621;BME280;31345;51.522;10.702;2022-10-31T09:13:11;99671.56;;;12.96;100.00
45621;BME280;31345;51.522;10.702;2022-10-31T09:16:06;99672.84;;;13.17;100.00
45621;BME280;31345;51.522;10.702;2022-10-31T09:18:36;99667.31;;;13.34;100.00
45621;BME280;31345;51.522;10.702;2022-10-31T09:21:04;99670.88;;;13.46;100.00
45621;BME280;31345;51.522;10.702;2022-10-31T09:23:32;99669.09;;;13.34;100.00
45621;BME280;31345;51.522;10.702;2022-10-31T09:26:01;99672.22;;;13.39;100.00
45621;BME280;31345;51.522;10.702;2022-10-31T09:28:41;99665.94;;;13.29;100.00
45621;BME280;31345;51.522;10.702;2022-10-31T09:31:13;99662.56;;;13.27;100.00
45621;BME280;31345;51.522;10.702;2022-10-31T09:33:57;99665.09;;;13.28;100.00
45621;BME280;31345;51.522;10.702;2022-10-31T09:36:52;99662.78;;;13.10;100.00
45621;BME280;31345;51.522;10.702;2022-10-31T09:39:24;99665.41;;;13.10;100.00
45621;BME280;31345;51.522;10.702;2022-10-31T09:42:28;99666.13;;;13.26;100.00
45621;BME280;31345;51.522;10.702;2022-10-31T09:45:07;99660.16;;;13.36;100.00
45621;BME280;31345;51.522;10.702;2022-10-31T09:47:51;99655.34;;;13.56;100.00
45621;BME280;31345;51.522;10.702;2022-10-31T09:50:51;99657.75;;;13.72;100.00
45621;BME280;31345;51.522;10.702;2022-10-31T09:53:51;99655.34;;;14.07;100.00
45621;BME280;31345;51.522;10.702;2022-10-31T09:56:30;99648.34;;;14.32;100.00
45621;BME280;31345;51.522;10.702;2022-10-31T09:59:00;99650.50;;;14.62;100.00
45621;BME280;31345;51.522;10.702;2022-10-31T10:01:35;99643.84;;;14.81;100.00
45621;BME280;31345;51.522;10.702;2022-10-31T10:04:24;99643.84;;;14.81;100.00
45621;BME280;31345;51.522;10.702;2022-10-31T10:07:20;99647.03;;;14.62;100.00
45621;BME280;31345;51.522;10.702;2022-10-31T10:10:15;99640.03;;;14.74;100.00
45621;BME280;31345;51.522;10.702;2022-10-31T10:13:39;99644.34;;;14.75;100.00
45621;BME280;31345;51.522;10.702;2022-10-31T10:16:25;99646.91;;;14.63;100.00
45621;BME280;31345;51.522;10.702;2022-10-31T10:19:11;99645.25;;;14.62;100.00
45621;BME280;31345;51.522;10.702;2022-10-31T10:21:53;99650.84;;;14.58;100.00
45621;BME280;31345;51.522;10.702;2022-10-31T10:24:31;99648.81;;;14.61;100.00
45621;BME280;31345;51.522;10.702;2022-10-31T10:27:08;99651.16;;;14.53;100.00
45621;BME280;31345;51.522;10.702;2022-10-31T10:29:44;99644.09;;;14.18;100.00
45621;BME280;31345;51.522;10.702;2022-10-31T10:32:20;99644.78;;;14.20;100.00
45621;BME280;31345;51.522;10.702;2022-10-31T10:34:53;99647.84;;;14.13;100.00
45621;BME280;31345;51.522;10.702;2022-10-31T10:37:26;99633.06;;;14.37;100.00
45621;BME280;31345;51.522;10.702;2022-10-31T10:40:06;99636.00;;;14.57;100.00
45621;BME280;31345;51.522;10.702;2022-10-31T10:42:53;99628.22;;;14.55;100.00
45621;BME280;31345;51.522;10.702;2022-10-31T10:49:24;99630.69;;;14.70;100.00
45621;BME280;31345;51.522;10.702;2022-10-31T10:52:27;99623.38;;;14.73;100.00
45621;BME280;31345;51.522;10.702;2022-10-31T10:55:09;99617.28;;;14.73;100.00
45621;BME280;31345;51.522;10.702;2022-10-31T10:57:55;99621.13;;;14.80;100.00
45621;BME280;31345;51.522;10.702;2022-10-31T11:00:26;99618.88;;;14.87;100.00
45621;BME280;31345;51.522;10.702;2022-10-31T11:02:55;99611.09;;;14.85;100.00
45621;BME280;31345;51.522;10.702;2022-10-31T11:05:25;99610.41;;;14.95;100.00
45621;BME280;31345;51.522;10.702;2022-10-31T11:07:55;99602.78;;;15.03;100.00
45621;BME280;31345;51.522;10.702;2022-10-31T11:10:25;99597.66;;;15.13;100.00
45621;BME280;31345;51.522;10.702;2022-10-31T11:13:21;99591.56;;;15.24;100.00
45621;BME280;31345;51.522;10.702;2022-10-31T11:15:55;99589.16;;;15.32;100.00
45621;BME280;31345;51.522;10.702;2022-10-31T11:18:25;99589.16;;;15.43;100.00
45621;BME280;31345;51.522;10.702;2022-10-31T11:20:57;99584.13;;;15.52;100.00
45621;BME280;31345;51.522;10.702;2022-10-31T11:23:32;99581.13;;;15.56;100.00
45621;BME280;31345;51.522;10.702;2022-10-31T11:26:04;99575.25;;;15.64;100.00
45621;BME280;31345;51.522;10.702;2022-10-31T11:28:33;99570.75;;;15.88;100.00
45621;BME280;31345;51.522;10.702;2022-10-31T11:31:08;99574.38;;;15.87;100.00
45621;BME280;31345;51.522;10.702;2022-10-31T11:33:47;99574.09;;;16.01;100.00
45621;BME280;31345;51.522;10.702;2022-10-31T11:36:21;99569.50;;;16.15;100.00
45621;BME280;31345;51.522;10.702;2022-10-31T11:38:51;99565.50;;;16.20;100.00
45621;BME280;31345;51.522;10.702;2022-10-31T11:41:26;99564.09;;;16.28;100.00
45621;BME280;31345;51.522;10.702;2022-10-31T11:43:57;99562.38;;;16.38;100.00
45621;BME280;31345;51.522;10.702;2022-10-31T11:46:33;99559.66;;;16.71;100.00
45621;BME280;31345;51.522;10.702;2022-10-31T11:49:02;99560.63;;;16.70;100.00
45621;BME280;31345;51.522;10.702;2022-10-31T11:51:33;99560.25;;;16.75;100.00
45621;BME280;31345;51.522;10.702;2022-10-31T11:54:04;99554.38;;;16.71;100.00
45621;BME280;31345;51.522;10.702;2022-10-31T11:56:40;99549.22;;;16.91;100.00
45621;BME280;31345;51.522;10.702;2022-10-31T11:59:18;99548.06;;;16.83;100.00
45621;BME280;31345;51.522;10.702;2022-10-31T12:01:51;99547.22;;;16.83;100.00
45621;BME280;31345;51.522;10.702;2022-10-31T12:04:30;99543.56;;;16.74;100.00
45621;BME280;31345;51.522;10.702;2022-10-31T12:07:01;99548.56;;;16.98;100.00
45621;BME280;31345;51.522;10.702;2022-10-31T12:09:30;99540.06;;;16.95;100.00
45621;BME280;31345;51.522;10.702;2022-10-31T12:12:15;99521.63;;;17.05;100.00
45621;BME280;31345;51.522;10.702;2022-10-31T12:14:56;99523.47;;;17.14;98.27
45621;BME280;31345;51.522;10.702;2022-10-31T12:17:34;99531.41;;;17.14;99.01
45621;BME280;31345;51.522;10.702;2022-10-31T12:20:16;99518.66;;;16.98;98.79
45621;BME280;31345;51.522;10.702;2022-10-31T12:22:58;99512.25;;;16.91;100.00
45621;BME280;31345;51.522;10.702;2022-10-31T12:25:38;99516.66;;;17.21;100.00
45621;BME280;31345;51.522;10.702;2022-10-31T12:28:44;99511.22;;;17.13;98.67
45621;BME280;31345;51.522;10.702;2022-10-31T12:34:21;99504.78;;;17.06;97.94
45621;BME280;31345;51.522;10.702;2022-10-31T12:37:00;99499.06;;;17.32;97.13
45621;BME280;31345;51.522;10.702;2022-10-31T12:39:40;99500.81;;;17.21;96.81
45621;BME280;31345;51.522;10.702;2022-10-31T12:42:19;99493.19;;;17.18;96.17
45621;BME280;31345;51.522;10.702;2022-10-31T12:45:15;99490.50;;;17.08;99.71
45621;BME280;31345;51.522;10.702;2022-10-31T12:47:59;99486.50;;;17.14;96.90
45621;BME280;31345;51.522;10.702;2022-10-31T12:50:44;99481.03;;;17.16;96.41
45621;BME280;31345;51.522;10.702;2022-10-31T12:53:37;99480.63;;;17.10;97.99
45621;BME280;31345;51.522;10.702;2022-10-31T12:56:17;99475.66;;;17.27;95.76
45621;BME280;31345;51.522;10.702;2022-10-31T12:58:55;99472.19;;;17.17;99.54
45621;BME280;31345;51.522;10.702;2022-10-31T13:01:30;99465.13;;;17.37;96.72
45621;BME280;31345;51.522;10.702;2022-10-31T13:04:04;99460.38;;;17.31;95.25
45621;BME280;31345;51.522;10.702;2022-10-31T13:06:35;99466.06;;;17.26;96.37
45621;BME280;31345;51.522;10.702;2022-10-31T13:09:07;99464.47;;;17.45;98.39
45621;BME280;31345;51.522;10.702;2022-10-31T13:11:40;99454.28;;;17.40;97.33
45621;BME280;31345;51.522;10.702;2022-10-31T13:16:58;99453.94;;;17.14;97.84
45621;BME280;31345;51.522;10.702;2022-10-31T13:19:31;99451.69;;;17.09;99.13
45621;BME280;31345;51.522;10.702;2022-10-31T13:22:06;99443.38;;;17.14;98.07
45621;BME280;31345;51.522;10.702;2022-10-31T13:24:38;99449.47;;;17.04;99.38
45621;BME280;31345;51.522;10.702;2022-10-31T13:27:13;99441.38;;;16.96;99.91
45621;BME280;31345;51.522;10.702;2022-10-31T13:29:54;99439.13;;;16.91;99.99
45621;BME280;31345;51.522;10.702;2022-10-31T13:32:51;99438.56;;;16.88;99.58
45621;BME280;31345;51.522;10.702;2022-10-31T13:36:19;99440.38;;;16.87;100.00
45621;BME280;31345;51.522;10.702;2022-10-31T13:39:41;99436.75;;;16.88;99.81
45621;BME280;31345;51.522;10.702;2022-10-31T13:42:20;99432.44;;;16.87;100.00
45621;BME280;31345;51.522;10.702;2022-10-31T13:44:50;99435.34;;;16.84;100.00